Time;durP1;ratioP1;P1;durP2;ratioP2;P2;SDS_P1;SDS_P2;PMS_P1;PMS_P2;Temp;Humidity;BMP_temperature;BMP_pressure;BME280_temperature;BME280_humidity;BME280_pressure;Samples;Min_cycle;Max_cycle;Signal;HPM_P1;HPM_P2
2023/04/05 00:00:54;;;;;;;10.47;5.23;;;1.50;59.80;;;;;;10407690;28;20229;-78
2023/04/05 00:06:36;;;;;;;8.73;4.77;;;1.50;61.20;;;;;;10440655;28;20507;-78
2023/04/05 00:11:57;;;;;;;8.10;4.67;;;1.40;57.30;;;;;;10411366;28;20260;-78
2023/04/05 00:17:18;;;;;;;11.27;4.23;;;1.60;55.80;;;;;;10407695;28;20201;-78
2023/04/05 00:22:43;;;;;;;7.93;4.10;;;1.60;58.80;;;;;;10397630;28;20372;-78
2023/04/05 00:28:04;;;;;;;9.47;4.50;;;1.70;58.00;;;;;;10398458;28;20207;-78
2023/04/05 00:33:25;;;;;;;14.03;5.77;;;1.80;54.40;;;;;;10397555;28;20280;-78
2023/04/05 00:38:48;;;;;;;20.67;6.23;;;1.80;54.00;;;;;;10404868;28;20200;-78
2023/04/05 00:44:11;;;;;;;19.40;6.93;;;1.80;56.60;;;;;;10438834;28;20240;-78
2023/04/05 00:49:36;;;;;;;20.03;6.90;;;1.80;58.80;;;;;;10411916;28;20221;-78
2023/04/05 00:54:57;;;;;;;18.03;7.00;;;1.80;55.10;;;;;;10397213;28;20208;-78
2023/04/05 01:00:20;;;;;;;13.37;5.30;;;1.80;61.10;;;;;;10399235;28;20484;-78
2023/04/05 01:05:54;;;;;;;14.00;5.70;;;1.80;60.50;;;;;;10410080;28;20205;-77
2023/04/05 01:11:16;;;;;;;12.10;5.13;;;1.80;61.30;;;;;;10409923;28;20230;-78
2023/04/05 01:16:37;;;;;;;12.10;4.57;;;1.80;64.80;;;;;;10409379;28;20202;-78
2023/04/05 01:22:15;;;;;;;9.80;5.07;;;1.90;58.80;;;;;;10395455;28;20429;-78
2023/04/05 01:27:50;;;;;;;13.50;6.00;;;1.80;58.30;;;;;;10399773;28;20201;-78
2023/04/05 01:33:20;;;;;;;17.70;7.37;;;1.70;59.80;;;;;;10395361;28;20529;-77
2023/04/05 01:38:48;;;;;;;21.30;8.20;;;1.70;62.40;;;;;;10418678;28;20209;-79
2023/04/05 01:44:10;;;;;;;23.63;8.23;;;1.80;59.30;;;;;;10421017;28;20229;-78
2023/04/05 01:49:31;;;;;;;16.47;5.80;;;1.80;63.10;;;;;;10433378;28;20225;-79
2023/04/05 01:54:53;;;;;;;10.90;5.03;;;1.70;62.80;;;;;;10418750;28;20277;-77
2023/04/05 02:00:14;;;;;;;9.93;4.87;;;1.80;63.30;;;;;;10418890;28;20200;-77
2023/04/05 02:05:36;;;;;;;7.47;3.80;;;1.70;67.90;;;;;;10403363;28;20202;-77
2023/04/05 02:10:57;;;;;;;7.10;3.57;;;1.70;72.10;;;;;;10421413;28;20261;-77
2023/04/05 02:16:18;;;;;;;10.07;3.60;;;1.80;74.40;;;;;;10430356;28;20425;-78
2023/04/05 02:21:39;;;;;;;16.57;4.10;;;1.90;85.30;;;;;;10391110;28;20233;-78
2023/04/05 02:27:01;;;;;;;8.80;4.30;;;2.00;88.80;;;;;;10413614;28;20198;-78
2023/04/05 02:32:22;;;;;;;9.13;3.50;;;2.00;90.40;;;;;;10420471;28;20241;-77
2023/04/05 02:37:44;;;;;;;8.97;3.70;;;1.90;84.20;;;;;;10438825;28;20198;-78
2023/04/05 02:43:05;;;;;;;6.43;3.03;;;1.90;85.90;;;;;;10461502;28;20431;-79
2023/04/05 02:48:26;;;;;;;9.23;3.80;;;1.90;88.00;;;;;;10430211;28;20219;-78
2023/04/05 02:53:48;;;;;;;8.60;3.97;;;1.90;87.70;;;;;;10434162;28;20235;-78
2023/04/05 02:59:10;;;;;;;8.03;3.40;;;1.80;92.20;;;;;;10426587;28;20280;-79
2023/04/05 03:04:33;;;;;;;6.10;3.17;;;1.80;92.20;;;;;;10406282;28;20205;-79
2023/04/05 03:09:56;;;;;;;6.13;3.13;;;1.90;91.30;;;;;;10438924;28;20238;-79
2023/04/05 03:15:19;;;;;;;4.70;2.70;;;1.80;90.70;;;;;;10436095;28;20390;-79
2023/04/05 03:20:42;;;;;;;6.17;3.37;;;1.80;91.30;;;;;;10408225;28;20510;-78
2023/04/05 03:26:10;;;;;;;7.00;3.73;;;1.80;92.20;;;;;;10433351;28;20236;-79
2023/04/05 03:31:35;;;;;;;7.37;3.30;;;1.90;95.50;;;;;;10399514;28;20271;-79
2023/04/05 03:37:00;;;;;;;7.73;3.40;;;1.90;93.30;;;;;;10390017;28;20302;-79
2023/04/05 03:42:33;;;;;;;5.83;3.57;;;1.90;92.30;;;;;;10399486;28;20292;-79
2023/04/05 03:47:55;;;;;;;8.47;4.70;;;1.90;93.70;;;;;;10415691;28;20207;-78
2023/04/05 03:53:16;;;;;;;10.80;5.93;;;1.90;91.10;;;;;;10398780;28;20273;-79
2023/04/05 03:58:41;;;;;;;24.70;11.83;;;1.80;92.10;;;;;;10420818;28;20254;-80
2023/04/05 04:04:04;;;;;;;22.57;11.23;;;1.80;96.50;;;;;;10403046;28;20240;-78
2023/04/05 04:09:28;;;;;;;16.67;8.20;;;1.80;95.30;;;;;;10397721;28;20234;-77
2023/04/05 04:14:57;;;;;;;12.73;5.13;;;1.90;93.50;;;;;;10383308;28;20425;-78
2023/04/05 04:20:45;;;;;;;10.63;4.17;;;1.90;95.20;;;;;;10395109;28;20207;-78
2023/04/05 04:26:25;;;;;;;9.80;4.87;;;1.90;93.60;;;;;;10389443;28;20220;-79
2023/04/05 04:32:05;;;;;;;13.30;5.10;;;1.90;92.10;;;;;;10421375;28;20657;-78
2023/04/05 04:37:46;;;;;;;7.60;4.53;;;2.00;90.90;;;;;;10448796;28;20214;-78
2023/04/05 04:43:27;;;;;;;8.33;4.53;;;2.00;91.30;;;;;;10448626;28;20229;-78
2023/04/05 04:49:08;;;;;;;6.47;3.60;;;2.00;95.30;;;;;;10428588;28;20414;-77
2023/04/05 04:54:29;;;;;;;7.87;4.10;;;2.00;91.60;;;;;;10421553;28;20204;-79
2023/04/05 04:59:50;;;;;;;7.00;4.80;;;2.00;92.60;;;;;;10399867;28;20290;-78
2023/04/05 05:05:12;;;;;;;10.63;4.93;;;2.00;93.20;;;;;;10396862;28;20265;-78
2023/04/05 05:10:33;;;;;;;7.97;3.90;;;2.10;94.20;;;;;;10396636;28;20546;-78
2023/04/05 05:15:57;;;;;;;5.97;3.17;;;2.10;94.90;;;;;;10395246;28;20187;-79
2023/04/05 05:21:19;;;;;;;8.40;4.33;;;2.30;93.90;;;;;;10404831;28;20205;-79
2023/04/05 05:26:48;;;;;;;12.23;5.93;;;2.30;93.70;;;;;;10402766;28;20273;-79
2023/04/05 05:32:14;;;;;;;9.90;5.30;;;2.40;94.80;;;;;;10436349;28;20268;-78
2023/04/05 05:37:36;;;;;;;8.03;5.00;;;2.60;94.30;;;;;;10419248;28;20456;-79
2023/04/05 05:42:57;;;;;;;10.77;6.03;;;2.60;95.50;;;;;;10412784;28;20238;-79
2023/04/05 05:48:18;;;;;;;10.63;4.97;;;2.70;96.10;;;;;;10388691;28;20230;-79
2023/04/05 05:53:40;;;;;;;10.33;4.47;;;2.70;96.30;;;;;;10394434;28;20210;-80
2023/04/05 05:59:01;;;;;;;9.27;3.60;;;2.80;96.20;;;;;;10382667;28;20561;-78
2023/04/05 06:04:23;;;;;;;15.13;8.40;;;2.90;95.50;;;;;;10428276;28;20238;-78
2023/04/05 06:09:46;;;;;;;5.57;3.93;;;2.90;97.40;;;;;;10420976;28;20241;-78
2023/04/05 06:15:08;;;;;;;10.83;5.90;;;2.80;99.00;;;;;;10415357;28;20207;-77
2023/04/05 06:20:29;;;;;;;7.40;4.47;;;2.70;99.90;;;;;;10394427;28;20194;-78
2023/04/05 06:25:51;;;;;;;21.70;14.10;;;2.80;99.90;;;;;;10399509;28;20237;-78
2023/04/05 06:31:15;;;;;;;41.77;23.70;;;3.20;99.90;;;;;;10381566;28;20302;-77
2023/04/05 06:36:36;;;;;;;16.60;10.00;;;3.50;98.10;;;;;;10405152;28;20241;-76
2023/04/05 06:41:57;;;;;;;24.30;11.60;;;3.50;97.50;;;;;;10424826;28;20213;-76
2023/04/05 06:47:26;;;;;;;16.70;5.00;;;4.30;85.50;;;;;;10398694;28;20192;-79
2023/04/05 06:52:47;;;;;;;10.07;3.30;;;5.40;62.40;;;;;;10373030;28;20232;-78
2023/04/05 06:58:08;;;;;;;11.80;5.47;;;5.80;52.60;;;;;;10368089;28;20208;-76
2023/04/05 07:03:29;;;;;;;7.07;4.40;;;6.00;49.80;;;;;;10347200;28;20214;-78
2023/04/05 07:08:51;;;;;;;9.90;4.43;;;5.20;60.90;;;;;;10360424;28;20204;-77
2023/04/05 07:14:12;;;;;;;6.30;3.43;;;4.80;73.90;;;;;;10345739;28;20203;-78
2023/04/05 07:19:33;;;;;;;5.53;2.80;;;4.20;91.00;;;;;;10370252;28;20205;-77
2023/04/05 07:24:55;;;;;;;9.23;2.83;;;5.90;74.10;;;;;;10357280;28;20237;-77
2023/04/05 07:30:16;;;;;;;6.70;2.50;;;8.10;36.60;;;;;;10392271;28;20257;-77
2023/04/05 07:35:37;;;;;;;5.20;2.20;;;8.80;21.30;;;;;;10390502;28;20650;-77
2023/04/05 07:40:58;;;;;;;9.07;2.23;;;8.30;20.60;;;;;;10392030;28;20256;-77
2023/04/05 07:46:20;;;;;;;10.60;3.77;;;7.10;22.80;;;;;;10402657;28;20415;-77
2023/04/05 07:51:42;;;;;;;6.07;2.27;;;6.20;25.20;;;;;;10434149;28;20227;-77
2023/04/05 07:57:04;;;;;;;9.13;3.50;;;5.70;29.50;;;;;;10428965;28;20204;-77
2023/04/05 08:02:25;;;;;;;8.77;4.30;;;5.40;31.90;;;;;;10419291;28;20381;-77
2023/04/05 08:07:46;;;;;;;7.63;4.57;;;5.00;32.40;;;;;;10446039;28;20202;-78
2023/04/05 08:13:08;;;;;;;17.20;10.07;;;5.70;35.00;;;;;;10445425;28;20234;-77
2023/04/05 08:18:49;;;;;;;6.53;2.30;;;7.90;23.20;;;;;;10436450;28;20243;-77
2023/04/05 08:24:12;;;;;;;9.00;2.90;;;9.90;15.50;;;;;;10414991;28;20217;-77
2023/04/05 08:29:33;;;;;;;3.90;1.90;;;9.90;12.80;;;;;;10391152;28;20280;-77
2023/04/05 08:34:54;;;;;;;5.37;1.40;;;;;;;;;;10396573;28;20217;-77
2023/04/05 08:40:16;;;;;;;3.70;2.50;;;;;;;;;;10391441;28;20523;-83
2023/04/05 08:45:47;;;;;;;5.13;2.03;;;;;;;;;;10362088;28;20251;-77
2023/04/05 08:51:09;;;;;;;5.63;2.67;;;;;;;;;;10367496;28;20241;-77
2023/04/05 08:56:32;;;;;;;18.87;7.23;;;;;;;;;;10368467;28;20491;-77
2023/04/05 09:01:54;;;;;;;20.30;7.03;;;;;;;;;;10368253;28;21092;-77
2023/04/05 09:07:17;;;;;;;6.60;3.57;;;;;;;;;;10412520;28;20199;-75
2023/04/05 09:12:39;;;;;;;3.17;1.97;;;;;;;;;;10409792;28;20232;-79
2023/04/05 09:18:00;;;;;;;4.33;2.63;;;;;;;;;;10389765;28;20207;-75
2023/04/05 09:23:22;;;;;;;7.77;4.83;;;;;;;;;;10366151;28;20211;-77
2023/04/05 09:28:43;;;;;;;5.80;2.67;;;;;;;;;;10407297;28;20216;-85
2023/04/05 09:34:05;;;;;;;7.73;2.50;;;;;;;;;;10384575;28;20281;-79
2023/04/05 09:39:28;;;;;;;5.50;2.33;;;;;;;;;;10437507;28;20272;-76
2023/04/05 09:45:06;;;;;;;10.20;4.70;;;;;;;;;;10413189;28;20266;-77
2023/04/05 09:50:37;;;;;;;8.37;3.57;;;;;;;;;;10368784;28;20233;-78
2023/04/05 09:56:09;;;;;;;120.57;67.97;;;7.40;33.40;;;;;;10373863;28;20234;-76
2023/04/05 10:01:31;;;;;;;34.97;19.27;;;;;;;;;;10393491;28;20240;-79
2023/04/05 10:06:53;;;;;;;7.43;4.53;;;;;;;;;;10376716;28;20244;-77
2023/04/05 10:12:25;;;;;;;8.57;4.23;;;;;;;;;;10389783;28;20247;-79
2023/04/05 10:17:50;;;;;;;5.07;2.77;;;;;;;;;;10391926;28;20216;-81
2023/04/05 10:23:22;;;;;;;3.53;2.17;;;;;;;;;;10396156;28;20219;-76
2023/04/05 10:28:47;;;;;;;3.20;2.00;;;;;;;;;;10378442;28;20224;-80
2023/04/05 10:34:14;;;;;;;5.17;2.00;;;;;;;;;;10379375;28;20277;-76
2023/04/05 10:39:35;;;;;;;11.47;6.53;;;;;;;;;;10381973;28;20237;-80
2023/04/05 10:45:05;;;;;;;8.83;4.93;;;;;;;;;;10376893;28;20244;-78
2023/04/05 10:50:27;;;;;;;16.07;8.27;;;;;;;;;;10366120;28;20233;-78
2023/04/05 10:55:50;;;;;;;7.27;3.90;;;;;;;;;;10394396;28;20216;-80
2023/04/05 11:01:12;;;;;;;3.70;2.00;;;;;;;;;;10394757;28;20200;-76
2023/04/05 11:06:34;;;;;;;5.03;2.37;;;;;;;;;;10414208;28;20495;-79
2023/04/05 11:11:55;;;;;;;12.10;3.00;;;;;;;;;;10419218;28;20231;-79
2023/04/05 11:17:25;;;;;;;3.17;1.90;;;;;;;;;;10403731;28;20218;-80
2023/04/05 11:22:53;;;;;;;5.53;2.17;;;;;;;;;;10432409;28;20209;-80
2023/04/05 11:28:39;;;;;;;7.17;3.53;;;;;;;;;;10377720;28;20251;-80
2023/04/05 11:34:10;;;;;;;54.00;17.77;;;;;;;;;;10377930;28;20278;-79
2023/04/05 11:39:32;;;;;;;6.63;3.20;;;;;;;;;;10436338;28;20215;-79
2023/04/05 11:44:55;;;;;;;5.57;2.30;;;5.90;45.20;;;;;;10393663;28;20248;-80
2023/04/05 11:50:16;;;;;;;19.40;14.50;;;5.90;44.30;;;;;;10379743;28;20282;-77
2023/04/05 11:55:42;;;;;;;10.10;4.20;;;5.80;43.90;;;;;;10411768;28;20494;-79
2023/04/05 12:01:06;;;;;;;2.70;1.87;;;5.80;43.40;;;;;;10449664;28;20193;-78
2023/04/05 12:06:27;;;;;;;5.57;2.03;;;5.60;43.30;;;;;;10397422;28;20211;-78
2023/04/05 12:11:53;;;;;;;3.13;1.90;;;5.60;45.10;;;;;;10392411;28;20225;-77
2023/04/05 12:17:15;;;;;;;7.83;2.60;;;;;;;;;;10408581;28;20208;-77
2023/04/05 12:22:37;;;;;;;7.13;2.27;;;5.40;45.90;;;;;;10390680;28;20208;-78
2023/04/05 12:28:07;;;;;;;7.00;3.10;;;5.50;45.60;;;;;;10374752;28;20219;-81
2023/04/05 12:33:32;;;;;;;37.00;16.97;;;5.60;47.10;;;;;;10363297;28;20241;-79
2023/04/05 12:38:54;;;;;;;9.77;5.30;;;5.60;47.50;;;;;;10376534;28;20365;-80
2023/04/05 12:44:29;;;;;;;7.57;4.97;;;5.60;44.60;;;;;;10382473;28;20273;-83
2023/04/05 12:49:50;;;;;;;23.73;16.30;;;5.80;45.50;;;;;;10351678;28;20300;-79
2023/04/05 12:55:15;;;;;;;6.43;3.53;;;5.80;45.70;;;;;;10377615;28;20209;-79
2023/04/05 13:00:36;;;;;;;5.20;1.87;;;5.90;45.20;;;;;;10364990;28;20205;-80
2023/04/05 13:05:58;;;;;;;4.30;1.70;;;5.90;44.10;;;;;;10381321;28;20257;-79
2023/04/05 13:11:19;;;;;;;2.47;1.13;;;5.80;42.90;;;;;;10369907;28;20244;-79
2023/04/05 13:16:40;;;;;;;4.90;1.50;;;5.80;42.10;;;;;;10399986;28;20211;-82
2023/04/05 13:22:01;;;;;;;4.93;2.97;;;5.70;41.80;;;;;;10351062;28;20204;-79
2023/04/05 13:27:22;;;;;;;7.97;2.30;;;5.80;44.10;;;;;;10376073;28;20395;-79
2023/04/05 13:32:44;;;;;;;4.33;2.10;;;5.80;42.40;;;;;;10389826;28;20681;-77
2023/04/05 13:38:06;;;;;;;5.93;1.60;;;5.90;43.30;;;;;;10409311;28;20222;-79
2023/04/05 13:43:29;;;;;;;4.67;1.87;;;6.00;42.30;;;;;;10430922;28;20250;-78
2023/04/05 13:48:51;;;;;;;4.83;1.60;;;6.20;40.30;;;;;;10412015;28;20255;-79
2023/04/05 13:54:12;;;;;;;2.17;1.33;;;6.30;39.90;;;;;;10396240;28;20283;-83
2023/04/05 13:59:33;;;;;;;1.47;1.30;;;6.40;38.60;;;;;;10442569;28;20213;-79
2023/04/05 14:04:55;;;;;;;3.73;1.40;;;6.50;37.90;;;;;;10436658;28;20240;-78
2023/04/05 14:10:16;;;;;;;3.30;1.27;;;6.60;37.50;;;;;;10428897;28;20563;-79
2023/04/05 14:15:42;;;;;;;4.47;1.50;;;6.80;37.80;;;;;;10404457;28;20227;-79
2023/04/05 14:21:04;;;;;;;4.27;1.80;;;6.70;36.50;;;;;;10408081;28;20204;-86
2023/04/05 14:26:26;;;;;;;4.63;2.30;;;;;;;;;;10404182;28;20212;-83
2023/04/05 14:31:47;;;;;;;6.87;2.30;;;;;;;;;;10387643;28;20237;-81
2023/04/05 14:37:09;;;;;;;7.07;2.90;;;;;;;;;;10398969;28;20221;-80
2023/04/05 14:42:31;;;;;;;5.70;3.10;;;;;;;;;;10424861;28;20569;-81
2023/04/05 14:48:01;;;;;;;4.17;1.60;;;;;;;;;;10436115;28;20197;-81
2023/04/05 14:53:23;;;;;;;3.67;2.27;;;;;;;;;;10433911;28;20244;-78
2023/04/05 14:58:46;;;;;;;7.03;1.80;;;;;;;;;;10448483;28;20209;-80
2023/04/05 15:04:07;;;;;;;6.00;1.97;;;;;;;;;;10412752;28;20241;-81
2023/04/05 15:09:29;;;;;;;5.17;2.10;;;;;;;;;;10429712;28;20220;-85
2023/04/05 15:14:53;;;;;;;6.33;2.43;;;;;;;;;;10404571;28;20218;-79
2023/04/05 15:20:15;;;;;;;4.33;2.27;;;;;;;;;;10444324;28;20208;-79
2023/04/05 15:25:36;;;;;;;5.77;2.47;;;;;;;;;;10452968;28;20189;-78
2023/04/05 15:30:57;;;;;;;5.23;2.60;;;;;;;;;;10424402;28;20496;-79
2023/04/05 15:36:19;;;;;;;3.93;1.80;;;;;;;;;;10406429;28;20213;-79
2023/04/05 15:41:41;;;;;;;3.80;2.07;;;;;;;;;;10417819;28;20530;-79
2023/04/05 15:47:03;;;;;;;7.40;4.07;;;;;;;;;;10466013;28;20196;-80
2023/04/05 15:52:24;;;;;;;13.90;7.93;;;;;;;;;;10411777;28;20230;-79
2023/04/05 15:57:48;;;;;;;11.83;6.47;;;;;;;;;;10410130;28;20204;-79
2023/04/05 16:03:10;;;;;;;18.70;8.03;;;;;;;;;;10408749;28;20216;-79
2023/04/05 16:08:32;;;;;;;19.93;9.10;;;;;;;;;;10436394;28;20200;-79
2023/04/05 16:13:53;;;;;;;15.83;8.73;;;5.40;41.60;;;;;;10396696;28;20606;-79
2023/04/05 16:19:14;;;;;;;11.33;6.47;;;5.40;40.30;;;;;;10392676;28;20210;-79
2023/04/05 16:24:37;;;;;;;9.23;4.77;;;5.60;40.30;;;;;;10373440;28;20196;-79
2023/04/05 16:29:58;;;;;;;22.90;11.57;;;5.50;40.70;;;;;;10364007;28;20231;-79
2023/04/05 16:35:19;;;;;;;14.47;8.57;;;5.50;39.00;;;;;;10431394;28;20220;-79
2023/04/05 16:40:40;;;;;;;11.87;6.37;;;5.50;38.90;;;;;;10394308;28;20263;-79
2023/04/05 16:46:01;;;;;;;14.97;7.03;;;5.50;40.30;;;;;;10397768;28;20540;-79
2023/04/05 16:51:22;;;;;;;21.10;10.53;;;5.50;40.50;;;;;;10374844;28;20304;-79
2023/04/05 16:56:44;;;;;;;23.97;10.63;;;5.50;41.10;;;;;;10358258;28;20230;-79
2023/04/05 17:02:25;;;;;;;13.47;6.93;;;5.60;39.50;;;;;;10359932;28;20260;-79
2023/04/05 17:08:06;;;;;;;12.73;6.30;;;5.40;38.50;;;;;;10355670;28;20213;-79
2023/04/05 17:13:28;;;;;;;31.57;13.40;;;5.30;42.70;;;;;;10393011;28;20217;-79
2023/04/05 17:18:49;;;;;;;35.67;14.83;;;5.30;44.20;;;;;;10395203;28;20196;-79
2023/04/05 17:24:36;;;;;;;28.30;13.83;;;5.30;46.30;;;;;;10355166;28;20395;-79
2023/04/05 17:29:59;;;;;;;16.33;9.03;;;5.20;47.50;;;;;;10364346;28;20213;-79
2023/04/05 17:35:21;;;;;;;21.07;9.10;;;5.10;49.40;;;;;;10370565;28;20209;-79
2023/04/05 17:40:42;;;;;;;24.40;11.97;;;5.00;50.80;;;;;;10370930;28;20260;-79
2023/04/05 17:46:03;;;;;;;29.60;13.77;;;5.00;50.20;;;;;;10390552;28;20247;-79
2023/04/05 17:51:26;;;;;;;34.23;18.47;;;5.00;1.00;;;;;;10379567;28;20220;-79
2023/04/05 17:56:47;;;;;;;43.30;23.93;;;5.00;1.00;;;;;;10371215;28;20205;-79
2023/04/05 18:02:09;;;;;;;69.90;32.00;;;5.00;1.00;;;;;;10407398;28;20193;-78
2023/04/05 18:07:35;;;;;;;67.13;29.40;;;4.90;1.00;;;;;;10380453;28;20208;-79
2023/04/05 18:12:57;;;;;;;80.40;31.30;;;4.90;1.00;;;;;;10394773;28;20224;-79
2023/04/05 18:18:18;;;;;;;60.43;25.93;;;4.70;1.00;;;;;;10410115;28;20250;-79
2023/04/05 18:23:39;;;;;;;36.07;16.13;;;4.80;1.00;;;;;;10394809;28;20192;-79
2023/04/05 18:29:00;;;;;;;29.27;14.63;;;4.70;1.00;;;;;;10393724;28;20216;-79
2023/04/05 18:34:21;;;;;;;22.03;11.47;;;4.60;1.00;;;;;;10410115;28;20272;-79
2023/04/05 18:39:43;;;;;;;18.77;8.57;;;4.50;74.50;;;;;;10413288;28;20193;-79
2023/04/05 18:45:05;;;;;;;10.67;6.00;;;4.50;80.90;;;;;;10374576;28;20271;-78
2023/04/05 18:50:26;;;;;;;8.13;5.03;;;4.40;84.50;;;;;;10360697;28;20380;-79
2023/04/05 18:55:51;;;;;;;14.93;8.00;;;4.40;86.20;;;;;;10378080;28;20232;-79
2023/04/05 19:01:14;;;;;;;47.27;23.57;;;4.30;85.80;;;;;;10376520;28;20231;-79
2023/04/05 19:06:36;;;;;;;51.90;22.40;;;4.20;91.40;;;;;;10391399;28;20200;-79
2023/04/05 19:11:57;;;;;;;43.60;18.30;;;4.20;93.60;;;;;;10391040;28;20235;-79
2023/04/05 19:17:18;;;;;;;49.63;22.27;;;4.10;95.10;;;;;;10425611;28;20195;-79
2023/04/05 19:22:39;;;;;;;47.07;21.10;;;4.00;96.00;;;;;;10382687;28;20213;-79
2023/04/05 19:28:01;;;;;;;44.00;17.97;;;;;;;;;;10378435;28;20195;-78
2023/04/05 19:33:43;;;;;;;37.73;17.47;;;3.80;99.90;;;;;;10400230;28;20301;-79
2023/04/05 19:39:06;;;;;;;29.57;15.47;;;3.50;92.40;;;;;;10384184;28;20275;-78
2023/04/05 19:44:48;;;;;;;31.67;15.97;;;3.40;94.80;;;;;;10365292;28;20247;-78
2023/04/05 19:50:32;;;;;;;30.53;15.97;;;3.30;95.60;;;;;;10364719;28;20219;-79
2023/04/05 19:55:55;;;;;;;37.37;19.93;;;3.30;96.20;;;;;;10363086;28;20235;-78
2023/04/05 20:01:38;;;;;;;40.80;19.57;;;3.20;97.20;;;;;;10372013;28;20204;-79
2023/04/05 20:07:01;;;;;;;62.27;30.57;;;3.10;97.90;;;;;;10385932;28;20212;-78
2023/04/05 20:12:23;;;;;;;91.07;39.77;;;3.00;98.20;;;;;;10389413;28;20223;-79
2023/04/05 20:17:47;;;;;;;118.17;51.43;;;3.00;98.70;;;;;;10398134;28;20191;-79
2023/04/05 20:23:09;;;;;;;114.33;51.40;;;2.90;99.10;;;;;;10396081;28;20498;-79
2023/04/05 20:28:36;;;;;;;77.57;36.20;;;2.90;98.70;;;;;;10347797;28;20521;-79
2023/04/05 20:34:10;;;;;;;42.03;20.30;;;2.80;98.80;;;;;;10383798;28;20277;-79
2023/04/05 20:39:31;;;;;;;35.03;16.10;;;2.70;99.20;;;;;;10362015;28;20238;-78
2023/04/05 20:44:52;;;;;;;41.30;18.63;;;2.70;99.60;;;;;;10375260;28;20231;-79
2023/04/05 20:50:13;;;;;;;50.80;22.93;;;2.60;99.90;;;;;;10434542;28;20197;-79
2023/04/05 20:55:34;;;;;;;81.03;38.83;;;2.60;99.80;;;;;;10386974;28;20202;-80
2023/04/05 21:00:56;;;;;;;93.37;42.03;;;2.50;99.90;;;;;;10397473;28;20195;-79
2023/04/05 21:06:17;;;;;;;84.57;38.07;;;2.50;99.50;;;;;;10359309;28;20297;-79
2023/04/05 21:11:38;;;;;;;64.33;31.33;;;2.40;99.00;;;;;;10377056;28;20210;-78
2023/04/05 21:16:59;;;;;;;70.90;32.57;;;2.30;99.80;;;;;;10395708;28;20242;-79
2023/04/05 21:22:20;;;;;;;58.43;30.13;;;2.30;99.90;;;;;;10386083;28;20438;-80
2023/04/05 21:27:41;;;;;;;60.67;31.00;;;2.30;99.90;;;;;;10370945;28;20212;-80
2023/04/05 21:33:03;;;;;;;45.77;26.53;;;2.20;99.90;;;;;;10368922;28;20457;-79
2023/04/05 21:38:24;;;;;;;40.73;19.80;;;2.30;99.90;;;;;;10374709;28;20205;-79
2023/04/05 21:43:45;;;;;;;38.80;17.27;;;2.20;99.90;;;;;;10368407;28;20306;-78
2023/04/05 21:49:06;;;;;;;55.73;20.47;;;2.10;99.90;;;;;;10373930;28;20193;-79
2023/04/05 21:54:28;;;;;;;71.97;23.00;;;2.00;99.90;;;;;;10370286;28;20560;-78
2023/04/05 21:59:49;;;;;;;113.07;35.30;;;2.00;99.90;;;;;;10355186;28;20219;-78
2023/04/05 22:05:11;;;;;;;88.17;31.03;;;2.00;99.90;;;;;;10360222;28;20449;-78
2023/04/05 22:10:34;;;;;;;48.40;19.37;;;2.00;99.90;;;;;;10354331;28;20193;-78
2023/04/05 22:15:55;;;;;;;45.73;18.83;;;1.90;99.90;;;;;;10368530;28;20501;-78
2023/04/05 22:21:17;;;;;;;32.73;13.73;;;1.90;99.90;;;;;;10370937;28;20243;-79
2023/04/05 22:26:39;;;;;;;31.03;14.37;;;1.80;99.90;;;;;;10369910;28;20230;-79
2023/04/05 22:32:00;;;;;;;35.57;14.77;;;1.80;99.90;;;;;;10387515;28;20222;-80
2023/04/05 22:37:21;;;;;;;41.57;15.33;;;1.70;99.90;;;;;;10360682;28;20221;-78
2023/04/05 22:42:42;;;;;;;60.80;20.30;;;1.60;99.90;;;;;;10354266;28;20286;-79
2023/04/05 22:48:04;;;;;;;54.67;19.33;;;;;;;;;;10355734;28;20266;-79
2023/04/05 22:53:25;;;;;;;41.40;17.37;;;1.60;99.90;;;;;;10393332;28;20226;-78
2023/04/05 22:58:48;;;;;;;32.87;12.93;;;;;;;;;;10407532;28;20274;-78
2023/04/05 23:04:09;;;;;;;24.60;10.90;;;;;;;;;;10390085;28;20207;-78
2023/04/05 23:09:31;;;;;;;26.53;12.83;;;;;;;;;;10393237;28;20210;-78
2023/04/05 23:14:52;;;;;;;25.70;11.90;;;;;;;;;;10361900;28;20585;-79
2023/04/05 23:20:14;;;;;;;27.10;11.67;;;;;;;;;;10382570;28;20211;-79
2023/04/05 23:25:36;;;;;;;22.53;11.60;;;;;;;;;;10400309;28;20413;-78
2023/04/05 23:30:57;;;;;;;19.87;11.13;;;;;;;;;;10399900;28;20214;-78
2023/04/05 23:36:20;;;;;;;25.80;12.63;;;;;;;;;;10399916;28;20281;-79
2023/04/05 23:41:42;;;;;;;23.50;12.90;;;;;;;;;;10399607;28;20230;-78
2023/04/05 23:47:04;;;;;;;20.70;11.70;;;;;;;;;;10399125;28;20230;-78
2023/04/05 23:52:25;;;;;;;18.23;9.60;;;;;;;;;;10367357;28;20227;-78
2023/04/05 23:57:47;;;;;;;19.37;9.73;;;;;;;;;;10374502;28;20199;-78
